sensor_id;sensor_type;location;lat;lon;timestamp;P1;durP1;ratioP1;P2;durP2;ratioP2
22435;SDS011;11385;50.822;4.324;2022-12-05T00:02:22;66.40;;;33.63;;
22435;SDS011;11385;50.822;4.324;2022-12-05T00:04:49;60.73;;;31.25;;
22435;SDS011;11385;50.822;4.324;2022-12-05T00:07:15;64.65;;;33.65;;
22435;SDS011;11385;50.822;4.324;2022-12-05T00:09:42;60.67;;;31.40;;
22435;SDS011;11385;50.822;4.324;2022-12-05T00:12:09;61.90;;;33.53;;
22435;SDS011;11385;50.822;4.324;2022-12-05T00:14:36;62.30;;;32.98;;
22435;SDS011;11385;50.822;4.324;2022-12-05T00:17:04;67.37;;;35.23;;
22435;SDS011;11385;50.822;4.324;2022-12-05T00:19:31;68.52;;;32.00;;
22435;SDS011;11385;50.822;4.324;2022-12-05T00:21:59;62.90;;;30.37;;
22435;SDS011;11385;50.822;4.324;2022-12-05T00:24:25;64.92;;;35.88;;
22435;SDS011;11385;50.822;4.324;2022-12-05T00:26:52;66.20;;;32.20;;
22435;SDS011;11385;50.822;4.324;2022-12-05T00:29:19;58.15;;;29.65;;
22435;SDS011;11385;50.822;4.324;2022-12-05T00:31:45;73.33;;;31.30;;
22435;SDS011;11385;50.822;4.324;2022-12-05T00:34:12;63.40;;;30.75;;
22435;SDS011;11385;50.822;4.324;2022-12-05T00:36:39;53.63;;;30.00;;
22435;SDS011;11385;50.822;4.324;2022-12-05T00:39:07;57.45;;;30.02;;
22435;SDS011;11385;50.822;4.324;2022-12-05T00:41:36;62.30;;;30.72;;
22435;SDS011;11385;50.822;4.324;2022-12-05T00:44:03;65.37;;;29.40;;
22435;SDS011;11385;50.822;4.324;2022-12-05T00:46:30;56.45;;;29.50;;
22435;SDS011;11385;50.822;4.324;2022-12-05T00:48:59;59.00;;;29.87;;
22435;SDS011;11385;50.822;4.324;2022-12-05T00:51:28;63.92;;;28.57;;
22435;SDS011;11385;50.822;4.324;2022-12-05T00:53:57;56.93;;;28.33;;
22435;SDS011;11385;50.822;4.324;2022-12-05T00:56:26;60.90;;;29.57;;
22435;SDS011;11385;50.822;4.324;2022-12-05T00:58:54;55.45;;;28.75;;
22435;SDS011;11385;50.822;4.324;2022-12-05T01:01:24;57.38;;;28.00;;
22435;SDS011;11385;50.822;4.324;2022-12-05T01:03:55;49.70;;;25.57;;
22435;SDS011;11385;50.822;4.324;2022-12-05T01:06:23;56.25;;;27.37;;
22435;SDS011;11385;50.822;4.324;2022-12-05T01:08:52;54.00;;;27.02;;
22435;SDS011;11385;50.822;4.324;2022-12-05T01:11:20;52.88;;;26.80;;
22435;SDS011;11385;50.822;4.324;2022-12-05T01:13:48;52.95;;;26.87;;
22435;SDS011;11385;50.822;4.324;2022-12-05T01:16:18;53.40;;;24.98;;
22435;SDS011;11385;50.822;4.324;2022-12-05T01:18:48;51.68;;;26.42;;
22435;SDS011;11385;50.822;4.324;2022-12-05T01:21:16;53.73;;;26.60;;
22435;SDS011;11385;50.822;4.324;2022-12-05T01:23:43;55.40;;;26.35;;
22435;SDS011;11385;50.822;4.324;2022-12-05T01:26:10;50.17;;;24.72;;
22435;SDS011;11385;50.822;4.324;2022-12-05T01:28:39;45.60;;;23.98;;
22435;SDS011;11385;50.822;4.324;2022-12-05T01:31:07;45.10;;;25.20;;
22435;SDS011;11385;50.822;4.324;2022-12-05T01:33:36;49.75;;;25.05;;
22435;SDS011;11385;50.822;4.324;2022-12-05T01:36:03;49.67;;;23.30;;
22435;SDS011;11385;50.822;4.324;2022-12-05T01:38:32;50.25;;;25.17;;
22435;SDS011;11385;50.822;4.324;2022-12-05T01:40:59;48.83;;;25.05;;
22435;SDS011;11385;50.822;4.324;2022-12-05T01:43:27;48.75;;;25.50;;
22435;SDS011;11385;50.822;4.324;2022-12-05T01:45:54;51.40;;;25.90;;
22435;SDS011;11385;50.822;4.324;2022-12-05T01:48:22;49.90;;;25.70;;
22435;SDS011;11385;50.822;4.324;2022-12-05T01:50:52;51.90;;;26.07;;
22435;SDS011;11385;50.822;4.324;2022-12-05T01:53:19;48.00;;;24.80;;
22435;SDS011;11385;50.822;4.324;2022-12-05T01:55:46;55.67;;;26.87;;
22435;SDS011;11385;50.822;4.324;2022-12-05T01:58:15;49.03;;;24.98;;
22435;SDS011;11385;50.822;4.324;2022-12-05T02:00:43;58.60;;;27.25;;
22435;SDS011;11385;50.822;4.324;2022-12-05T02:03:13;53.92;;;26.62;;
22435;SDS011;11385;50.822;4.324;2022-12-05T02:05:41;54.75;;;28.07;;
22435;SDS011;11385;50.822;4.324;2022-12-05T02:08:09;55.05;;;29.20;;
22435;SDS011;11385;50.822;4.324;2022-12-05T02:10:40;56.68;;;27.85;;
22435;SDS011;11385;50.822;4.324;2022-12-05T02:13:17;55.67;;;27.07;;
22435;SDS011;11385;50.822;4.324;2022-12-05T02:15:50;53.50;;;27.48;;
22435;SDS011;11385;50.822;4.324;2022-12-05T02:18:40;58.68;;;28.92;;
22435;SDS011;11385;50.822;4.324;2022-12-05T02:21:18;54.75;;;28.65;;
22435;SDS011;11385;50.822;4.324;2022-12-05T02:24:11;61.83;;;29.72;;
22435;SDS011;11385;50.822;4.324;2022-12-05T02:26:55;59.23;;;29.32;;
22435;SDS011;11385;50.822;4.324;2022-12-05T02:32:09;47.67;;;23.27;;
22435;SDS011;11385;50.822;4.324;2022-12-05T02:34:44;68.15;;;30.25;;
22435;SDS011;11385;50.822;4.324;2022-12-05T02:37:13;67.05;;;31.82;;
22435;SDS011;11385;50.822;4.324;2022-12-05T02:42:14;67.92;;;29.20;;
22435;SDS011;11385;50.822;4.324;2022-12-05T02:44:44;66.77;;;31.27;;
22435;SDS011;11385;50.822;4.324;2022-12-05T02:49:42;68.07;;;29.27;;
22435;SDS011;11385;50.822;4.324;2022-12-05T02:52:12;66.12;;;31.25;;
22435;SDS011;11385;50.822;4.324;2022-12-05T02:54:40;74.67;;;32.08;;
22435;SDS011;11385;50.822;4.324;2022-12-05T02:57:09;72.60;;;31.97;;
22435;SDS011;11385;50.822;4.324;2022-12-05T02:59:38;70.55;;;32.55;;
22435;SDS011;11385;50.822;4.324;2022-12-05T03:02:07;70.65;;;31.80;;
22435;SDS011;11385;50.822;4.324;2022-12-05T03:04:34;69.17;;;31.93;;
22435;SDS011;11385;50.822;4.324;2022-12-05T03:07:02;80.85;;;33.65;;
22435;SDS011;11385;50.822;4.324;2022-12-05T03:09:33;53.97;;;24.40;;
22435;SDS011;11385;50.822;4.324;2022-12-05T03:12:07;72.60;;;34.83;;
22435;SDS011;11385;50.822;4.324;2022-12-05T03:14:41;72.95;;;32.35;;
22435;SDS011;11385;50.822;4.324;2022-12-05T03:17:11;73.50;;;33.80;;
22435;SDS011;11385;50.822;4.324;2022-12-05T03:19:46;74.47;;;31.73;;
22435;SDS011;11385;50.822;4.324;2022-12-05T03:22:25;69.95;;;32.35;;
22435;SDS011;11385;50.822;4.324;2022-12-05T03:24:58;73.02;;;31.37;;
22435;SDS011;11385;50.822;4.324;2022-12-05T03:27:29;72.80;;;31.70;;
22435;SDS011;11385;50.822;4.324;2022-12-05T03:30:03;73.02;;;31.97;;
22435;SDS011;11385;50.822;4.324;2022-12-05T03:32:36;68.37;;;32.05;;
22435;SDS011;11385;50.822;4.324;2022-12-05T03:35:15;67.40;;;31.68;;
22435;SDS011;11385;50.822;4.324;2022-12-05T03:37:53;69.40;;;31.27;;
22435;SDS011;11385;50.822;4.324;2022-12-05T03:40:30;67.72;;;29.37;;
22435;SDS011;11385;50.822;4.324;2022-12-05T03:45:58;65.65;;;29.77;;
22435;SDS011;11385;50.822;4.324;2022-12-05T03:48:31;64.53;;;30.43;;
22435;SDS011;11385;50.822;4.324;2022-12-05T03:51:05;62.33;;;28.70;;
22435;SDS011;11385;50.822;4.324;2022-12-05T03:53:36;65.13;;;30.73;;
22435;SDS011;11385;50.822;4.324;2022-12-05T03:56:09;67.65;;;30.43;;
22435;SDS011;11385;50.822;4.324;2022-12-05T03:58:42;58.87;;;30.12;;
22435;SDS011;11385;50.822;4.324;2022-12-05T04:01:11;58.83;;;28.75;;
22435;SDS011;11385;50.822;4.324;2022-12-05T04:03:40;57.70;;;28.73;;
22435;SDS011;11385;50.822;4.324;2022-12-05T04:06:14;49.55;;;28.17;;
22435;SDS011;11385;50.822;4.324;2022-12-05T04:08:49;57.08;;;27.70;;
22435;SDS011;11385;50.822;4.324;2022-12-05T04:11:19;58.28;;;27.30;;
22435;SDS011;11385;50.822;4.324;2022-12-05T04:13:51;50.30;;;26.50;;
22435;SDS011;11385;50.822;4.324;2022-12-05T04:16:23;56.15;;;27.55;;
22435;SDS011;11385;50.822;4.324;2022-12-05T04:18:59;57.70;;;27.25;;
22435;SDS011;11385;50.822;4.324;2022-12-05T04:21:31;58.52;;;28.90;;
22435;SDS011;11385;50.822;4.324;2022-12-05T04:24:05;58.00;;;27.13;;
22435;SDS011;11385;50.822;4.324;2022-12-05T04:26:42;59.67;;;29.37;;
22435;SDS011;11385;50.822;4.324;2022-12-05T04:29:11;54.65;;;27.73;;
22435;SDS011;11385;50.822;4.324;2022-12-05T04:31:57;54.15;;;27.22;;
22435;SDS011;11385;50.822;4.324;2022-12-05T04:36:56;62.15;;;26.52;;
22435;SDS011;11385;50.822;4.324;2022-12-05T04:39:47;59.73;;;28.92;;
22435;SDS011;11385;50.822;4.324;2022-12-05T04:42:18;52.98;;;27.48;;
22435;SDS011;11385;50.822;4.324;2022-12-05T04:44:49;52.00;;;26.15;;
22435;SDS011;11385;50.822;4.324;2022-12-05T04:47:18;56.02;;;27.35;;
22435;SDS011;11385;50.822;4.324;2022-12-05T04:49:48;52.43;;;25.10;;
22435;SDS011;11385;50.822;4.324;2022-12-05T04:52:16;47.62;;;25.85;;
22435;SDS011;11385;50.822;4.324;2022-12-05T04:54:47;45.55;;;24.63;;
22435;SDS011;11385;50.822;4.324;2022-12-05T04:57:17;47.10;;;24.87;;
22435;SDS011;11385;50.822;4.324;2022-12-05T04:59:46;36.43;;;18.40;;
22435;SDS011;11385;50.822;4.324;2022-12-05T05:02:14;46.95;;;24.52;;
22435;SDS011;11385;50.822;4.324;2022-12-05T05:04:46;45.08;;;24.92;;
22435;SDS011;11385;50.822;4.324;2022-12-05T05:07:16;42.80;;;24.13;;
22435;SDS011;11385;50.822;4.324;2022-12-05T05:09:43;45.88;;;24.77;;
22435;SDS011;11385;50.822;4.324;2022-12-05T05:12:11;50.85;;;25.92;;
22435;SDS011;11385;50.822;4.324;2022-12-05T05:14:38;52.58;;;26.60;;
22435;SDS011;11385;50.822;4.324;2022-12-05T05:17:04;46.77;;;26.33;;
22435;SDS011;11385;50.822;4.324;2022-12-05T05:19:31;49.20;;;25.50;;
22435;SDS011;11385;50.822;4.324;2022-12-05T05:21:58;51.58;;;27.00;;
22435;SDS011;11385;50.822;4.324;2022-12-05T05:24:25;48.87;;;26.52;;
22435;SDS011;11385;50.822;4.324;2022-12-05T05:26:52;50.55;;;25.60;;
22435;SDS011;11385;50.822;4.324;2022-12-05T05:29:18;55.12;;;26.93;;
22435;SDS011;11385;50.822;4.324;2022-12-05T05:31:45;51.35;;;26.82;;
22435;SDS011;11385;50.822;4.324;2022-12-05T05:34:12;46.60;;;27.02;;
22435;SDS011;11385;50.822;4.324;2022-12-05T05:36:40;46.18;;;25.85;;
22435;SDS011;11385;50.822;4.324;2022-12-05T05:39:11;49.95;;;26.77;;
22435;SDS011;11385;50.822;4.324;2022-12-05T05:41:38;53.35;;;27.15;;
22435;SDS011;11385;50.822;4.324;2022-12-05T05:44:05;50.20;;;27.73;;
22435;SDS011;11385;50.822;4.324;2022-12-05T05:46:33;53.98;;;28.60;;
22435;SDS011;11385;50.822;4.324;2022-12-05T05:49:00;50.03;;;27.80;;
22435;SDS011;11385;50.822;4.324;2022-12-05T05:51:27;55.08;;;28.05;;
22435;SDS011;11385;50.822;4.324;2022-12-05T05:53:55;52.67;;;27.67;;
22435;SDS011;11385;50.822;4.324;2022-12-05T05:56:23;54.88;;;28.23;;
22435;SDS011;11385;50.822;4.324;2022-12-05T05:58:53;55.73;;;28.35;;
22435;SDS011;11385;50.822;4.324;2022-12-05T06:01:22;58.52;;;27.42;;
22435;SDS011;11385;50.822;4.324;2022-12-05T06:03:49;58.83;;;29.45;;
22435;SDS011;11385;50.822;4.324;2022-12-05T06:06:16;61.15;;;29.10;;
22435;SDS011;11385;50.822;4.324;2022-12-05T06:08:43;60.23;;;29.40;;
22435;SDS011;11385;50.822;4.324;2022-12-05T06:11:12;54.03;;;28.15;;
22435;SDS011;11385;50.822;4.324;2022-12-05T06:13:41;48.80;;;27.37;;
22435;SDS011;11385;50.822;4.324;2022-12-05T06:16:09;53.30;;;28.20;;
22435;SDS011;11385;50.822;4.324;2022-12-05T06:18:37;59.00;;;28.47;;
22435;SDS011;11385;50.822;4.324;2022-12-05T06:21:03;61.15;;;28.07;;
22435;SDS011;11385;50.822;4.324;2022-12-05T06:23:33;54.05;;;27.52;;
22435;SDS011;11385;50.822;4.324;2022-12-05T06:26:00;55.23;;;28.12;;
22435;SDS011;11385;50.822;4.324;2022-12-05T06:28:27;55.45;;;28.75;;
22435;SDS011;11385;50.822;4.324;2022-12-05T06:30:54;54.48;;;28.77;;
22435;SDS011;11385;50.822;4.324;2022-12-05T06:33:20;59.93;;;28.25;;
22435;SDS011;11385;50.822;4.324;2022-12-05T06:35:47;51.83;;;28.23;;
22435;SDS011;11385;50.822;4.324;2022-12-05T06:38:14;55.58;;;29.18;;
22435;SDS011;11385;50.822;4.324;2022-12-05T06:40:41;56.80;;;27.48;;
22435;SDS011;11385;50.822;4.324;2022-12-05T06:43:09;51.50;;;25.95;;
22435;SDS011;11385;50.822;4.324;2022-12-05T06:45:37;54.48;;;27.42;;
22435;SDS011;11385;50.822;4.324;2022-12-05T06:48:04;52.73;;;27.13;;
22435;SDS011;11385;50.822;4.324;2022-12-05T06:50:31;53.30;;;28.35;;
22435;SDS011;11385;50.822;4.324;2022-12-05T06:52:58;51.85;;;26.90;;
22435;SDS011;11385;50.822;4.324;2022-12-05T06:55:25;52.93;;;26.02;;
22435;SDS011;11385;50.822;4.324;2022-12-05T06:57:51;53.70;;;27.07;;
22435;SDS011;11385;50.822;4.324;2022-12-05T07:00:18;51.53;;;26.75;;
22435;SDS011;11385;50.822;4.324;2022-12-05T07:02:51;49.20;;;27.07;;
22435;SDS011;11385;50.822;4.324;2022-12-05T07:05:18;55.67;;;28.83;;
22435;SDS011;11385;50.822;4.324;2022-12-05T07:07:45;48.95;;;26.95;;
22435;SDS011;11385;50.822;4.324;2022-12-05T07:10:11;50.30;;;27.73;;
22435;SDS011;11385;50.822;4.324;2022-12-05T07:12:38;56.98;;;27.30;;
22435;SDS011;11385;50.822;4.324;2022-12-05T07:15:05;54.88;;;27.60;;
22435;SDS011;11385;50.822;4.324;2022-12-05T07:17:34;52.85;;;26.23;;
22435;SDS011;11385;50.822;4.324;2022-12-05T07:20:04;48.70;;;27.87;;
22435;SDS011;11385;50.822;4.324;2022-12-05T07:22:33;45.98;;;24.72;;
22435;SDS011;11385;50.822;4.324;2022-12-05T07:25:01;45.98;;;24.82;;
22435;SDS011;11385;50.822;4.324;2022-12-05T07:27:28;47.95;;;26.45;;
22435;SDS011;11385;50.822;4.324;2022-12-05T07:29:55;48.52;;;25.65;;
22435;SDS011;11385;50.822;4.324;2022-12-05T07:32:21;42.78;;;24.60;;
22435;SDS011;11385;50.822;4.324;2022-12-05T07:34:48;45.43;;;25.23;;
22435;SDS011;11385;50.822;4.324;2022-12-05T07:37:14;51.02;;;25.72;;
22435;SDS011;11385;50.822;4.324;2022-12-05T07:39:41;44.35;;;24.67;;
22435;SDS011;11385;50.822;4.324;2022-12-05T07:42:08;51.20;;;26.17;;
22435;SDS011;11385;50.822;4.324;2022-12-05T07:44:34;50.58;;;26.35;;
22435;SDS011;11385;50.822;4.324;2022-12-05T07:47:01;49.23;;;24.77;;
22435;SDS011;11385;50.822;4.324;2022-12-05T07:49:27;47.88;;;26.17;;
22435;SDS011;11385;50.822;4.324;2022-12-05T07:51:54;45.58;;;25.75;;
22435;SDS011;11385;50.822;4.324;2022-12-05T07:54:21;46.33;;;25.57;;
22435;SDS011;11385;50.822;4.324;2022-12-05T07:56:48;49.40;;;26.37;;
22435;SDS011;11385;50.822;4.324;2022-12-05T07:59:14;50.10;;;27.27;;
22435;SDS011;11385;50.822;4.324;2022-12-05T08:01:41;51.00;;;27.07;;
22435;SDS011;11385;50.822;4.324;2022-12-05T08:04:08;55.33;;;27.73;;
22435;SDS011;11385;50.822;4.324;2022-12-05T08:06:35;49.58;;;26.37;;
22435;SDS011;11385;50.822;4.324;2022-12-05T08:09:01;56.25;;;26.75;;
22435;SDS011;11385;50.822;4.324;2022-12-05T08:11:29;55.35;;;26.60;;
22435;SDS011;11385;50.822;4.324;2022-12-05T08:13:59;55.23;;;27.02;;
22435;SDS011;11385;50.822;4.324;2022-12-05T08:16:27;50.88;;;26.90;;
22435;SDS011;11385;50.822;4.324;2022-12-05T08:18:55;51.53;;;27.45;;
22435;SDS011;11385;50.822;4.324;2022-12-05T08:21:23;52.60;;;26.02;;
22435;SDS011;11385;50.822;4.324;2022-12-05T08:23:51;55.65;;;26.60;;
22435;SDS011;11385;50.822;4.324;2022-12-05T08:26:19;50.73;;;26.20;;
22435;SDS011;11385;50.822;4.324;2022-12-05T08:28:51;54.38;;;28.55;;
22435;SDS011;11385;50.822;4.324;2022-12-05T08:33:49;50.70;;;25.43;;
22435;SDS011;11385;50.822;4.324;2022-12-05T08:36:16;58.65;;;28.10;;
22435;SDS011;11385;50.822;4.324;2022-12-05T08:38:44;50.23;;;24.23;;
22435;SDS011;11385;50.822;4.324;2022-12-05T08:41:12;45.12;;;23.95;;
22435;SDS011;11385;50.822;4.324;2022-12-05T08:43:41;42.40;;;23.27;;
22435;SDS011;11385;50.822;4.324;2022-12-05T08:46:09;50.20;;;25.70;;
22435;SDS011;11385;50.822;4.324;2022-12-05T08:48:35;45.55;;;23.70;;
22435;SDS011;11385;50.822;4.324;2022-12-05T08:51:05;48.78;;;25.55;;
22435;SDS011;11385;50.822;4.324;2022-12-05T08:53:33;44.53;;;24.23;;
22435;SDS011;11385;50.822;4.324;2022-12-05T08:56:01;48.05;;;26.25;;
22435;SDS011;11385;50.822;4.324;2022-12-05T08:58:29;47.67;;;24.57;;
22435;SDS011;11385;50.822;4.324;2022-12-05T09:03:30;43.38;;;25.02;;
22435;SDS011;11385;50.822;4.324;2022-12-05T09:08:31;40.83;;;22.80;;
22435;SDS011;11385;50.822;4.324;2022-12-05T09:10:58;43.70;;;22.27;;
22435;SDS011;11385;50.822;4.324;2022-12-05T09:13:24;43.33;;;23.62;;
22435;SDS011;11385;50.822;4.324;2022-12-05T09:15:51;38.58;;;22.17;;
22435;SDS011;11385;50.822;4.324;2022-12-05T09:18:18;41.75;;;21.25;;
22435;SDS011;11385;50.822;4.324;2022-12-05T09:20:44;39.95;;;21.70;;
22435;SDS011;11385;50.822;4.324;2022-12-05T09:23:11;35.60;;;21.90;;
22435;SDS011;11385;50.822;4.324;2022-12-05T09:25:38;37.30;;;21.48;;
22435;SDS011;11385;50.822;4.324;2022-12-05T09:28:04;39.10;;;22.07;;
22435;SDS011;11385;50.822;4.324;2022-12-05T09:30:31;42.30;;;21.65;;
22435;SDS011;11385;50.822;4.324;2022-12-05T09:32:57;34.95;;;21.90;;
22435;SDS011;11385;50.822;4.324;2022-12-05T09:35:24;37.53;;;20.92;;
22435;SDS011;11385;50.822;4.324;2022-12-05T09:37:51;36.53;;;20.75;;
22435;SDS011;11385;50.822;4.324;2022-12-05T09:40:20;40.00;;;23.15;;
22435;SDS011;11385;50.822;4.324;2022-12-05T09:42:53;37.73;;;22.40;;
22435;SDS011;11385;50.822;4.324;2022-12-05T09:45:22;39.18;;;22.05;;
22435;SDS011;11385;50.822;4.324;2022-12-05T09:47:56;33.78;;;20.02;;
22435;SDS011;11385;50.822;4.324;2022-12-05T09:50:29;32.58;;;18.98;;
22435;SDS011;11385;50.822;4.324;2022-12-05T09:53:01;31.20;;;18.90;;
22435;SDS011;11385;50.822;4.324;2022-12-05T09:55:34;29.77;;;18.70;;
22435;SDS011;11385;50.822;4.324;2022-12-05T09:58:14;27.30;;;17.37;;
22435;SDS011;11385;50.822;4.324;2022-12-05T10:00:41;25.32;;;16.67;;
22435;SDS011;11385;50.822;4.324;2022-12-05T10:03:18;28.98;;;16.67;;
22435;SDS011;11385;50.822;4.324;2022-12-05T10:05:46;30.15;;;16.85;;
22435;SDS011;11385;50.822;4.324;2022-12-05T10:08:23;26.48;;;16.45;;
22435;SDS011;11385;50.822;4.324;2022-12-05T10:10:59;26.73;;;16.75;;
22435;SDS011;11385;50.822;4.324;2022-12-05T10:13:29;28.83;;;16.57;;
22435;SDS011;11385;50.822;4.324;2022-12-05T10:15:59;26.30;;;16.52;;
22435;SDS011;11385;50.822;4.324;2022-12-05T10:18:33;22.52;;;15.20;;
22435;SDS011;11385;50.822;4.324;2022-12-05T10:21:10;25.85;;;15.30;;
22435;SDS011;11385;50.822;4.324;2022-12-05T10:26:24;26.02;;;16.10;;
22435;SDS011;11385;50.822;4.324;2022-12-05T10:28:58;27.07;;;16.20;;
22435;SDS011;11385;50.822;4.324;2022-12-05T10:31:29;24.23;;;16.02;;
22435;SDS011;11385;50.822;4.324;2022-12-05T10:34:22;25.62;;;16.70;;
22435;SDS011;11385;50.822;4.324;2022-12-05T10:36:59;26.73;;;15.90;;
22435;SDS011;11385;50.822;4.324;2022-12-05T10:39:27;23.12;;;15.72;;
22435;SDS011;11385;50.822;4.324;2022-12-05T10:41:54;24.00;;;15.00;;
22435;SDS011;11385;50.822;4.324;2022-12-05T10:44:21;24.63;;;15.93;;
22435;SDS011;11385;50.822;4.324;2022-12-05T10:46:47;23.60;;;14.43;;
22435;SDS011;11385;50.822;4.324;2022-12-05T10:49:14;23.77;;;15.90;;
22435;SDS011;11385;50.822;4.324;2022-12-05T10:51:41;21.33;;;14.13;;
22435;SDS011;11385;50.822;4.324;2022-12-05T10:54:12;21.17;;;14.35;;
22435;SDS011;11385;50.822;4.324;2022-12-05T10:56:47;22.52;;;15.63;;
22435;SDS011;11385;50.822;4.324;2022-12-05T10:59:16;27.32;;;17.05;;
22435;SDS011;11385;50.822;4.324;2022-12-05T11:01:48;27.70;;;17.10;;
22435;SDS011;11385;50.822;4.324;2022-12-05T11:04:22;23.32;;;15.08;;
22435;SDS011;11385;50.822;4.324;2022-12-05T11:06:57;21.82;;;14.10;;
22435;SDS011;11385;50.822;4.324;2022-12-05T11:09:26;21.42;;;15.38;;
22435;SDS011;11385;50.822;4.324;2022-12-05T11:11:57;24.45;;;16.37;;
22435;SDS011;11385;50.822;4.324;2022-12-05T11:14:30;22.95;;;14.50;;
22435;SDS011;11385;50.822;4.324;2022-12-05T11:17:00;21.65;;;13.60;;
22435;SDS011;11385;50.822;4.324;2022-12-05T11:19:29;21.65;;;14.47;;
22435;SDS011;11385;50.822;4.324;2022-12-05T11:24:33;20.35;;;12.98;;
22435;SDS011;11385;50.822;4.324;2022-12-05T11:29:58;18.32;;;12.40;;
22435;SDS011;11385;50.822;4.324;2022-12-05T11:32:28;17.30;;;11.53;;
22435;SDS011;11385;50.822;4.324;2022-12-05T11:37:37;17.73;;;12.05;;
22435;SDS011;11385;50.822;4.324;2022-12-05T11:40:15;17.23;;;12.03;;
22435;SDS011;11385;50.822;4.324;2022-12-05T11:45:31;19.05;;;13.03;;
22435;SDS011;11385;50.822;4.324;2022-12-05T11:48:09;17.85;;;13.08;;
22435;SDS011;11385;50.822;4.324;2022-12-05T11:50:40;20.55;;;13.93;;
22435;SDS011;11385;50.822;4.324;2022-12-05T11:56:40;20.30;;;12.98;;
22435;SDS011;11385;50.822;4.324;2022-12-05T11:58:57;20.52;;;13.18;;
22435;SDS011;11385;50.822;4.324;2022-12-05T12:06:45;19.92;;;13.60;;
22435;SDS011;11385;50.822;4.324;2022-12-05T12:09:20;20.92;;;13.38;;
22435;SDS011;11385;50.822;4.324;2022-12-05T12:11:53;20.27;;;13.68;;
22435;SDS011;11385;50.822;4.324;2022-12-05T12:14:25;18.37;;;12.28;;
22435;SDS011;11385;50.822;4.324;2022-12-05T12:20:03;20.48;;;13.18;;
22435;SDS011;11385;50.822;4.324;2022-12-05T12:22:42;18.60;;;12.53;;
22435;SDS011;11385;50.822;4.324;2022-12-05T12:25:23;18.10;;;12.37;;
22435;SDS011;11385;50.822;4.324;2022-12-05T12:28:32;19.52;;;13.28;;
22435;SDS011;11385;50.822;4.324;2022-12-05T12:30:52;21.23;;;14.05;;
22435;SDS011;11385;50.822;4.324;2022-12-05T12:33:33;19.42;;;13.85;;
22435;SDS011;11385;50.822;4.324;2022-12-05T12:36:23;19.65;;;13.85;;
22435;SDS011;11385;50.822;4.324;2022-12-05T12:41:39;19.50;;;13.48;;
22435;SDS011;11385;50.822;4.324;2022-12-05T12:44:24;20.70;;;14.10;;
22435;SDS011;11385;50.822;4.324;2022-12-05T12:46:59;21.42;;;14.23;;
22435;SDS011;11385;50.822;4.324;2022-12-05T12:49:34;21.90;;;15.50;;
22435;SDS011;11385;50.822;4.324;2022-12-05T12:52:11;23.98;;;15.78;;
22435;SDS011;11385;50.822;4.324;2022-12-05T12:54:52;23.32;;;15.18;;
22435;SDS011;11385;50.822;4.324;2022-12-05T12:57:28;26.10;;;15.38;;
22435;SDS011;11385;50.822;4.324;2022-12-05T13:00:03;22.87;;;14.93;;
22435;SDS011;11385;50.822;4.324;2022-12-05T13:02:35;20.62;;;13.90;;
22435;SDS011;11385;50.822;4.324;2022-12-05T13:05:06;20.27;;;14.63;;
22435;SDS011;11385;50.822;4.324;2022-12-05T13:07:36;18.57;;;11.75;;
22435;SDS011;11385;50.822;4.324;2022-12-05T13:10:27;24.00;;;15.45;;
22435;SDS011;11385;50.822;4.324;2022-12-05T13:13:12;21.57;;;15.10;;
22435;SDS011;11385;50.822;4.324;2022-12-05T13:15:42;14.20;;;10.80;;
22435;SDS011;11385;50.822;4.324;2022-12-05T13:18:15;21.80;;;15.15;;
22435;SDS011;11385;50.822;4.324;2022-12-05T13:20:46;21.82;;;14.43;;
22435;SDS011;11385;50.822;4.324;2022-12-05T13:23:16;19.65;;;14.95;;
22435;SDS011;11385;50.822;4.324;2022-12-05T13:25:44;24.37;;;14.07;;
22435;SDS011;11385;50.822;4.324;2022-12-05T13:28:33;20.35;;;13.30;;
22435;SDS011;11385;50.822;4.324;2022-12-05T13:31:05;20.82;;;14.18;;
22435;SDS011;11385;50.822;4.324;2022-12-05T13:33:35;18.45;;;14.20;;
22435;SDS011;11385;50.822;4.324;2022-12-05T13:36:11;21.02;;;14.18;;
22435;SDS011;11385;50.822;4.324;2022-12-05T13:38:46;23.70;;;13.95;;
22435;SDS011;11385;50.822;4.324;2022-12-05T13:41:19;18.07;;;13.98;;
22435;SDS011;11385;50.822;4.324;2022-12-05T13:43:52;19.82;;;14.55;;
22435;SDS011;11385;50.822;4.324;2022-12-05T13:46:25;20.88;;;14.10;;
22435;SDS011;11385;50.822;4.324;2022-12-05T13:49:14;22.02;;;15.10;;
22435;SDS011;11385;50.822;4.324;2022-12-05T13:52:05;20.77;;;14.63;;
22435;SDS011;11385;50.822;4.324;2022-12-05T13:54:34;20.50;;;14.47;;
22435;SDS011;11385;50.822;4.324;2022-12-05T14:04:51;24.70;;;15.72;;
22435;SDS011;11385;50.822;4.324;2022-12-05T14:10:10;25.30;;;16.50;;
22435;SDS011;11385;50.822;4.324;2022-12-05T14:12:49;24.63;;;15.90;;
22435;SDS011;11385;50.822;4.324;2022-12-05T14:15:24;22.67;;;14.75;;
22435;SDS011;11385;50.822;4.324;2022-12-05T14:18:03;26.02;;;16.73;;
22435;SDS011;11385;50.822;4.324;2022-12-05T14:21:16;24.72;;;16.07;;
22435;SDS011;11385;50.822;4.324;2022-12-05T14:26:29;24.37;;;16.40;;
22435;SDS011;11385;50.822;4.324;2022-12-05T14:29:03;28.25;;;18.48;;
22435;SDS011;11385;50.822;4.324;2022-12-05T14:31:59;24.60;;;17.85;;
22435;SDS011;11385;50.822;4.324;2022-12-05T14:37:26;26.25;;;16.57;;
22435;SDS011;11385;50.822;4.324;2022-12-05T14:39:57;24.52;;;16.65;;
22435;SDS011;11385;50.822;4.324;2022-12-05T14:42:29;22.93;;;15.80;;
22435;SDS011;11385;50.822;4.324;2022-12-05T14:44:58;23.05;;;16.35;;
22435;SDS011;11385;50.822;4.324;2022-12-05T14:47:28;25.70;;;17.07;;
22435;SDS011;11385;50.822;4.324;2022-12-05T14:49:59;24.98;;;16.73;;
22435;SDS011;11385;50.822;4.324;2022-12-05T14:52:33;26.02;;;17.07;;
22435;SDS011;11385;50.822;4.324;2022-12-05T14:55:04;26.17;;;17.45;;
22435;SDS011;11385;50.822;4.324;2022-12-05T14:57:34;24.47;;;17.32;;
22435;SDS011;11385;50.822;4.324;2022-12-05T15:00:05;25.80;;;18.12;;
22435;SDS011;11385;50.822;4.324;2022-12-05T15:02:33;25.88;;;17.37;;
22435;SDS011;11385;50.822;4.324;2022-12-05T15:05:12;29.30;;;18.92;;
22435;SDS011;11385;50.822;4.324;2022-12-05T15:07:41;27.75;;;19.32;;
22435;SDS011;11385;50.822;4.324;2022-12-05T15:10:27;25.72;;;18.60;;
22435;SDS011;11385;50.822;4.324;2022-12-05T15:12:56;29.67;;;19.12;;
22435;SDS011;11385;50.822;4.324;2022-12-05T15:17:58;30.00;;;18.02;;
22435;SDS011;11385;50.822;4.324;2022-12-05T15:20:32;31.95;;;20.35;;
22435;SDS011;11385;50.822;4.324;2022-12-05T15:23:00;32.90;;;20.68;;
22435;SDS011;11385;50.822;4.324;2022-12-05T15:25:28;33.35;;;20.88;;
22435;SDS011;11385;50.822;4.324;2022-12-05T15:27:58;32.55;;;20.45;;
22435;SDS011;11385;50.822;4.324;2022-12-05T15:30:29;32.20;;;20.68;;
22435;SDS011;11385;50.822;4.324;2022-12-05T15:32:57;34.90;;;20.90;;
22435;SDS011;11385;50.822;4.324;2022-12-05T15:35:24;34.50;;;21.75;;
22435;SDS011;11385;50.822;4.324;2022-12-05T15:37:57;37.70;;;21.42;;
22435;SDS011;11385;50.822;4.324;2022-12-05T15:40:31;34.08;;;21.85;;
22435;SDS011;11385;50.822;4.324;2022-12-05T15:43:00;37.42;;;22.65;;
22435;SDS011;11385;50.822;4.324;2022-12-05T15:45:29;35.70;;;22.42;;
22435;SDS011;11385;50.822;4.324;2022-12-05T15:48:11;37.08;;;22.00;;
22435;SDS011;11385;50.822;4.324;2022-12-05T15:50:40;39.23;;;23.10;;